Delta Pioneer — SYIO — position and weather

sailwx.info

Track history (hours):
 
Tides and Currents Weather Stations Pressure Air Temp Water Temp Dewpoint Dewpoint Depression Visibility Wind Speed Wind Dir Waves Ship Positions

Delta Pioneer

Last reported at 2015-Sep-03 11:14 UTC. Time now 2015-Sep-04 16:39 UTC.
Position N 57°51' E 010°10'.

Length 249 m; draft 14.6 m.

Type: Ship (hazmat cat C). MMSI: 240244000.

Date/timePositionNaut miles runAvg speedWind from/ knotsBaromVisibWave heightAir tempDewpointWater temp
2015-Sep-03 11:14N 57°51' E 010°10'811.3
2015-Sep-03 10:33N 57°51' E 010°24'1010.4
2015-Sep-03 09:33N 57°49' E 010°44'1111.0
2015-Sep-03 08:33N 57°42' E 010°58'1111.4
2015-Sep-03 07:33N 57°34' E 011°14'1110.8
2015-Sep-03 06:33N 57°27' E 011°29'1010.5
2015-Sep-03 05:33N 57°17' E 011°34'1010.4
2015-Sep-03 04:33N 57°07' E 011°40'1010.2
2015-Sep-03 03:33N 56°57' E 011°47'10 9.9
2015-Sep-03 02:33N 56°48' E 011°53'1010.2
2015-Sep-03 01:33N 56°38' E 011°47'83 9.2
2015-Sep-02 16:33N 55°19' E 011°02'10 8.6
2015-Sep-02 15:23N 55°09' E 010°60'911.0
2015-Sep-02 14:33N 54°60' E 010°59'1010.3
2015-Sep-02 13:33N 54°51' E 010°50'1110.6
2015-Sep-02 12:32N 54°40' E 010°49'1010.7
2015-Sep-02 11:34N 54°36' E 011°06'1110.9
2015-Sep-02 10:32N 54°32' E 011°24'1110.9
2015-Sep-02 09:33N 54°28' E 011°41'1010.4
2015-Sep-02 08:33N 54°27' E 011°59'9 8.9
2015-Sep-02 07:33N 54°30' E 012°13'57 9.4
2015-Sep-02 01:32N 54°59' E 013°38'1111.1
2015-Sep-02 00:33N 55°02' E 013°55'1010.4
2015-Sep-01 23:33N 55°09' E 014°10'1111.3
2015-Sep-01 22:33N 55°17' E 014°22'1111.2
2015-Sep-01 21:33N 55°26' E 014°35'1111.1
2015-Sep-01 20:33N 55°31' E 014°52'1111.2
2015-Sep-01 19:33N 55°37' E 015°09'1110.9
2015-Sep-01 18:33N 55°40' E 015°28'1311.2
2015-Sep-01 17:22N 55°43' E 015°51'5511.5
2015-Sep-01 12:33N 55°57' E 017°26'1211.3
2015-Sep-01 11:27N 56°01' E 017°47'1511.4
2015-Sep-01 10:10N 56°09' E 018°09'1011.5
2015-Sep-01 09:18N 56°14' E 018°24'21711.3
2015-Aug-31 14:06N 59°18' E 021°59'711.8
2015-Aug-31 13:33N 59°22' E 022°09'1211.5
2015-Aug-31 12:33N 59°29' E 022°27'2311.4
2015-Aug-31 10:32N 59°36' E 023°11'1111.5
2015-Aug-31 09:33N 59°39' E 023°32'1211.6
2015-Aug-31 08:33N 59°42' E 023°54'3911.7
2015-Aug-31 05:11N 59°52' E 025°10'1011.5
2015-Aug-31 04:21N 59°53' E 025°29'911.5
2015-Aug-31 03:33N 59°55' E 025°47'1111.5
2015-Aug-31 02:33N 59°58' E 026°09'1111.4
2015-Aug-31 01:33N 60°01' E 026°31'1111.2
2015-Aug-31 00:33N 60°00' E 026°53'1210.9
2015-Aug-30 23:27N 60°04' E 027°16'11 0.3
2015-Aug-29 12:32N 59°58' E 026°58'1211.3
2015-Aug-29 11:26N 59°59' E 026°33'8111.6
2015-Aug-29 04:30N 59°39' E 023°57'1111.3
2015-Aug-29 03:32N 59°36' E 023°36'246 9.1
2015-Aug-28 00:33N 55°43' E 021°06'0 0.0
2015-Aug-27 08:33N 55°43' E 021°06'0 0.0
2015-Aug-27 07:33N 55°43' E 021°06'0 0.0
2015-Aug-27 06:34N 55°43' E 021°06'0 0.0
2015-Aug-27 05:34N 55°43' E 021°06'0 0.0
2015-Aug-27 04:33N 55°43' E 021°06'0 0.0
2015-Aug-27 03:34N 55°43' E 021°06'0 0.0
2015-Aug-27 02:34N 55°43' E 021°06'0 0.0
2015-Aug-27 01:34N 55°43' E 021°06'0 0.0
2015-Aug-27 00:21N 55°43' E 021°06'0 0.0
2015-Aug-26 23:33N 55°43' E 021°06'0 0.0
2015-Aug-26 22:32N 55°43' E 021°06'9 0.2
2015-Aug-25 05:28N 55°46' E 020°51'0 0.0
2015-Aug-25 04:25N 55°46' E 020°51'2 1.6
2015-Aug-25 03:26N 55°47' E 020°49'7 5.8
2015-Aug-25 02:14N 55°46' E 020°36'5 7.0
2015-Aug-25 01:33N 55°46' E 020°28'7 6.8
2015-Aug-25 00:28N 55°47' E 020°15'6 6.8
2015-Aug-24 23:33N 55°47' E 020°04'8 6.8
2015-Aug-24 22:23N 55°48' E 019°50'9 6.8
2015-Aug-24 21:05N 55°49' E 019°34'4 6.8
2015-Aug-24 20:33N 55°49' E 019°27'7 6.8
2015-Aug-24 19:33N 55°50' E 019°15'7 6.9
2015-Aug-24 18:33N 55°50' E 019°03'7 7.0
2015-Aug-24 17:33N 55°51' E 018°51'7 6.9
2015-Aug-24 16:33N 55°52' E 018°39'7 7.0
2015-Aug-24 15:33N 55°52' E 018°26'8 7.7
2015-Aug-24 14:34N 55°53' E 018°12'8 7.8
2015-Aug-24 13:33N 55°54' E 017°59'9 9.2
2015-Aug-24 12:33N 55°55' E 017°42'1211.7
2015-Aug-24 11:33N 55°52' E 017°22'  
Track history (hours):
 
Tides and Currents Weather Stations Pressure Air Temp Water Temp Dewpoint Dewpoint Depression Visibility Wind Speed Wind Dir Waves Ship Positions

Delta Pioneer

Last reported at 2015-Sep-03 11:14 UTC. Time now 2015-Sep-04 16:39 UTC.
Position N 57°51' E 010°10'.

Length 249 m; draft 14.6 m.

Type: Ship (hazmat cat C). MMSI: 240244000.

Date/timePositionNaut miles runAvg speedWind from/ knotsBaromVisibWave heightAir tempDewpointWater temp
2015-Sep-03 11:14N 57°51' E 010°10'811.3
2015-Sep-03 10:33N 57°51' E 010°24'1010.4
2015-Sep-03 09:33N 57°49' E 010°44'1111.0
2015-Sep-03 08:33N 57°42' E 010°58'1111.4
2015-Sep-03 07:33N 57°34' E 011°14'1110.8
2015-Sep-03 06:33N 57°27' E 011°29'1010.5
2015-Sep-03 05:33N 57°17' E 011°34'1010.4
2015-Sep-03 04:33N 57°07' E 011°40'1010.2
2015-Sep-03 03:33N 56°57' E 011°47'10 9.9
2015-Sep-03 02:33N 56°48' E 011°53'1010.2
2015-Sep-03 01:33N 56°38' E 011°47'83 9.2
2015-Sep-02 16:33N 55°19' E 011°02'10 8.6
2015-Sep-02 15:23N 55°09' E 010°60'911.0
2015-Sep-02 14:33N 54°60' E 010°59'1010.3
2015-Sep-02 13:33N 54°51' E 010°50'1110.6
2015-Sep-02 12:32N 54°40' E 010°49'1010.7
2015-Sep-02 11:34N 54°36' E 011°06'1110.9
2015-Sep-02 10:32N 54°32' E 011°24'1110.9
2015-Sep-02 09:33N 54°28' E 011°41'1010.4
2015-Sep-02 08:33N 54°27' E 011°59'9 8.9
2015-Sep-02 07:33N 54°30' E 012°13'57 9.4
2015-Sep-02 01:32N 54°59' E 013°38'1111.1
2015-Sep-02 00:33N 55°02' E 013°55'1010.4
2015-Sep-01 23:33N 55°09' E 014°10'1111.3
2015-Sep-01 22:33N 55°17' E 014°22'1111.2
2015-Sep-01 21:33N 55°26' E 014°35'1111.1
2015-Sep-01 20:33N 55°31' E 014°52'1111.2
2015-Sep-01 19:33N 55°37' E 015°09'1110.9
2015-Sep-01 18:33N 55°40' E 015°28'1311.2
2015-Sep-01 17:22N 55°43' E 015°51'5511.5
2015-Sep-01 12:33N 55°57' E 017°26'1211.3
2015-Sep-01 11:27N 56°01' E 017°47'1511.4
2015-Sep-01 10:10N 56°09' E 018°09'1011.5
2015-Sep-01 09:18N 56°14' E 018°24'21711.3
2015-Aug-31 14:06N 59°18' E 021°59'711.8
2015-Aug-31 13:33N 59°22' E 022°09'1211.5
2015-Aug-31 12:33N 59°29' E 022°27'2311.4
2015-Aug-31 10:32N 59°36' E 023°11'1111.5
2015-Aug-31 09:33N 59°39' E 023°32'1211.6
2015-Aug-31 08:33N 59°42' E 023°54'3911.7
2015-Aug-31 05:11N 59°52' E 025°10'1011.5
2015-Aug-31 04:21N 59°53' E 025°29'911.5
2015-Aug-31 03:33N 59°55' E 025°47'1111.5
2015-Aug-31 02:33N 59°58' E 026°09'1111.4
2015-Aug-31 01:33N 60°01' E 026°31'1111.2
2015-Aug-31 00:33N 60°00' E 026°53'1210.9
2015-Aug-30 23:27N 60°04' E 027°16'11 0.3
2015-Aug-29 12:32N 59°58' E 026°58'1211.3
2015-Aug-29 11:26N 59°59' E 026°33'8111.6
2015-Aug-29 04:30N 59°39' E 023°57'1111.3
2015-Aug-29 03:32N 59°36' E 023°36'246 9.1
2015-Aug-28 00:33N 55°43' E 021°06'0 0.0
2015-Aug-27 08:33N 55°43' E 021°06'0 0.0
2015-Aug-27 07:33N 55°43' E 021°06'0 0.0
2015-Aug-27 06:34N 55°43' E 021°06'0 0.0
2015-Aug-27 05:34N 55°43' E 021°06'0 0.0
2015-Aug-27 04:33N 55°43' E 021°06'0 0.0
2015-Aug-27 03:34N 55°43' E 021°06'0 0.0
2015-Aug-27 02:34N 55°43' E 021°06'0 0.0
2015-Aug-27 01:34N 55°43' E 021°06'0 0.0
2015-Aug-27 00:21N 55°43' E 021°06'0 0.0
2015-Aug-26 23:33N 55°43' E 021°06'0 0.0
2015-Aug-26 22:32N 55°43' E 021°06'9 0.2
2015-Aug-25 05:28N 55°46' E 020°51'0 0.0
2015-Aug-25 04:25N 55°46' E 020°51'2 1.6
2015-Aug-25 03:26N 55°47' E 020°49'7 5.8
2015-Aug-25 02:14N 55°46' E 020°36'5 7.0
2015-Aug-25 01:33N 55°46' E 020°28'7 6.8
2015-Aug-25 00:28N 55°47' E 020°15'6 6.8
2015-Aug-24 23:33N 55°47' E 020°04'8 6.8
2015-Aug-24 22:23N 55°48' E 019°50'9 6.8
2015-Aug-24 21:05N 55°49' E 019°34'4 6.8
2015-Aug-24 20:33N 55°49' E 019°27'7 6.8
2015-Aug-24 19:33N 55°50' E 019°15'7 6.9
2015-Aug-24 18:33N 55°50' E 019°03'7 7.0
2015-Aug-24 17:33N 55°51' E 018°51'7 6.9
2015-Aug-24 16:33N 55°52' E 018°39'7 7.0
2015-Aug-24 15:33N 55°52' E 018°26'8 7.7
2015-Aug-24 14:34N 55°53' E 018°12'8 7.8
2015-Aug-24 13:33N 55°54' E 017°59'9 9.2
2015-Aug-24 12:33N 55°55' E 017°42'1211.7
2015-Aug-24 11:33N 55°52' E 017°22'  

Dump ship's entire track history